sensor_id;sensor_type;location;lat;lon;timestamp;pressure;altitude;pressure_sealevel;temperature;humidity
13312;BME280;34033;48.672;9.376;2022-07-05T00:00:07;98791.13;;;23.25;56.81
13312;BME280;34033;48.672;9.376;2022-07-05T00:02:33;98794.72;;;23.17;57.10
13312;BME280;34033;48.672;9.376;2022-07-05T00:04:58;98791.63;;;23.02;57.67
13312;BME280;34033;48.672;9.376;2022-07-05T00:07:24;98792.28;;;23.06;57.66
13312;BME280;34033;48.672;9.376;2022-07-05T00:09:51;98783.59;;;23.10;57.55
13312;BME280;34033;48.672;9.376;2022-07-05T00:12:18;98781.25;;;23.17;57.62
13312;BME280;34033;48.672;9.376;2022-07-05T00:14:44;98778.09;;;23.15;57.64
13312;BME280;34033;48.672;9.376;2022-07-05T00:17:11;98784.06;;;23.08;57.97
13312;BME280;34033;48.672;9.376;2022-07-05T00:19:37;98788.44;;;23.00;58.27
13312;BME280;34033;48.672;9.376;2022-07-05T00:22:05;98780.94;;;22.94;58.63
13312;BME280;34033;48.672;9.376;2022-07-05T00:24:30;98787.44;;;22.94;58.67
13312;BME280;34033;48.672;9.376;2022-07-05T00:26:56;98785.88;;;22.93;58.75
13312;BME280;34033;48.672;9.376;2022-07-05T00:29:22;98794.56;;;22.90;58.93
13312;BME280;34033;48.672;9.376;2022-07-05T00:31:47;98786.16;;;22.86;59.12
13312;BME280;34033;48.672;9.376;2022-07-05T00:34:13;98791.19;;;22.82;59.47
13312;BME280;34033;48.672;9.376;2022-07-05T00:36:38;98793.63;;;22.93;59.21
13312;BME280;34033;48.672;9.376;2022-07-05T00:39:05;98794.09;;;22.91;59.24
13312;BME280;34033;48.672;9.376;2022-07-05T00:41:30;98796.50;;;22.93;59.35
13312;BME280;34033;48.672;9.376;2022-07-05T00:44:01;98789.03;;;22.95;59.35
13312;BME280;34033;48.672;9.376;2022-07-05T00:46:27;98787.44;;;22.94;59.29
13312;BME280;34033;48.672;9.376;2022-07-05T00:48:53;98788.59;;;22.97;59.34
13312;BME280;34033;48.672;9.376;2022-07-05T00:51:20;98797.13;;;22.97;59.56
13312;BME280;34033;48.672;9.376;2022-07-05T00:53:46;98782.09;;;22.96;59.22
13312;BME280;34033;48.672;9.376;2022-07-05T00:56:13;98796.16;;;22.91;59.65
13312;BME280;34033;48.672;9.376;2022-07-05T00:58:38;98802.66;;;22.91;59.56
13312;BME280;34033;48.672;9.376;2022-07-05T01:01:06;98797.00;;;23.00;59.30
13312;BME280;34033;48.672;9.376;2022-07-05T01:03:32;98797.28;;;22.93;59.49
13312;BME280;34033;48.672;9.376;2022-07-05T01:06:00;98795.16;;;22.84;59.52
13312;BME280;34033;48.672;9.376;2022-07-05T01:08:26;98796.09;;;22.81;59.67
13312;BME280;34033;48.672;9.376;2022-07-05T01:10:56;98784.81;;;22.78;59.86
13312;BME280;34033;48.672;9.376;2022-07-05T01:13:22;98798.06;;;22.72;60.20
13312;BME280;34033;48.672;9.376;2022-07-05T01:15:48;98783.28;;;22.64;60.13
13312;BME280;34033;48.672;9.376;2022-07-05T01:18:14;98795.31;;;22.68;60.02
13312;BME280;34033;48.672;9.376;2022-07-05T01:20:41;98792.09;;;22.79;59.59
13312;BME280;34033;48.672;9.376;2022-07-05T01:23:07;98787.00;;;22.74;59.59
13312;BME280;34033;48.672;9.376;2022-07-05T01:25:33;98794.31;;;22.75;59.92
13312;BME280;34033;48.672;9.376;2022-07-05T01:28:00;98790.06;;;22.79;59.28
13312;BME280;34033;48.672;9.376;2022-07-05T01:30:26;98793.16;;;22.72;59.68
13312;BME280;34033;48.672;9.376;2022-07-05T01:32:51;98800.69;;;22.66;59.46
13312;BME280;34033;48.672;9.376;2022-07-05T01:35:20;98805.72;;;22.75;59.41
13312;BME280;34033;48.672;9.376;2022-07-05T01:37:49;98803.81;;;22.59;59.49
13312;BME280;34033;48.672;9.376;2022-07-05T01:40:15;98791.28;;;22.57;59.72
13312;BME280;34033;48.672;9.376;2022-07-05T01:42:41;98795.31;;;22.46;59.83
13312;BME280;34033;48.672;9.376;2022-07-05T01:45:06;98805.06;;;22.36;60.36
13312;BME280;34033;48.672;9.376;2022-07-05T01:47:36;98791.53;;;22.50;59.76
13312;BME280;34033;48.672;9.376;2022-07-05T01:50:02;98790.16;;;22.54;59.45
13312;BME280;34033;48.672;9.376;2022-07-05T01:52:31;98799.75;;;22.48;59.70
13312;BME280;34033;48.672;9.376;2022-07-05T01:55:00;98799.22;;;22.40;59.98
13312;BME280;34033;48.672;9.376;2022-07-05T01:57:27;98789.81;;;22.52;59.54
13312;BME280;34033;48.672;9.376;2022-07-05T01:59:53;98797.13;;;22.53;59.40
13312;BME280;34033;48.672;9.376;2022-07-05T02:02:18;98800.75;;;22.54;59.34
13312;BME280;34033;48.672;9.376;2022-07-05T02:04:44;98804.41;;;22.54;59.14
13312;BME280;34033;48.672;9.376;2022-07-05T02:07:10;98806.38;;;22.44;59.70
13312;BME280;34033;48.672;9.376;2022-07-05T02:09:35;98812.22;;;22.41;59.74
13312;BME280;34033;48.672;9.376;2022-07-05T02:12:02;98805.97;;;22.33;60.05
13312;BME280;34033;48.672;9.376;2022-07-05T02:14:28;98800.94;;;22.37;59.81
13312;BME280;34033;48.672;9.376;2022-07-05T02:16:53;98805.97;;;22.33;59.94
13312;BME280;34033;48.672;9.376;2022-07-05T02:19:19;98803.22;;;22.42;59.76
13312;BME280;34033;48.672;9.376;2022-07-05T02:21:44;98799.88;;;22.44;59.34
13312;BME280;34033;48.672;9.376;2022-07-05T02:24:09;98799.31;;;22.49;59.26
13312;BME280;34033;48.672;9.376;2022-07-05T02:26:35;98787.03;;;22.39;59.63
13312;BME280;34033;48.672;9.376;2022-07-05T02:29:02;98803.59;;;22.32;59.71
13312;BME280;34033;48.672;9.376;2022-07-05T02:31:28;98798.09;;;22.37;59.64
13312;BME280;34033;48.672;9.376;2022-07-05T02:33:54;98800.00;;;22.40;59.31
13312;BME280;34033;48.672;9.376;2022-07-05T02:36:19;98801.25;;;22.39;59.59
13312;BME280;34033;48.672;9.376;2022-07-05T02:38:45;98805.72;;;22.40;59.38
13312;BME280;34033;48.672;9.376;2022-07-05T02:41:11;98817.34;;;22.33;59.77
13312;BME280;34033;48.672;9.376;2022-07-05T02:43:37;98814.97;;;22.32;59.62
13312;BME280;34033;48.672;9.376;2022-07-05T02:46:04;98804.63;;;22.25;59.88
13312;BME280;34033;48.672;9.376;2022-07-05T02:48:29;98810.56;;;22.18;60.16
13312;BME280;34033;48.672;9.376;2022-07-05T02:50:55;98810.56;;;22.18;59.97
13312;BME280;34033;48.672;9.376;2022-07-05T02:53:21;98805.88;;;22.24;59.85
13312;BME280;34033;48.672;9.376;2022-07-05T02:55:46;98804.78;;;22.22;59.96
13312;BME280;34033;48.672;9.376;2022-07-05T02:58:11;98810.31;;;22.25;59.76
13312;BME280;34033;48.672;9.376;2022-07-05T03:00:37;98813.75;;;22.20;59.78
13312;BME280;34033;48.672;9.376;2022-07-05T03:03:02;98817.78;;;22.10;60.24
13312;BME280;34033;48.672;9.376;2022-07-05T03:05:28;98816.59;;;22.20;59.68
13312;BME280;34033;48.672;9.376;2022-07-05T03:07:53;98818.88;;;22.25;59.47
13312;BME280;34033;48.672;9.376;2022-07-05T03:10:19;98815.59;;;22.14;59.64
13312;BME280;34033;48.672;9.376;2022-07-05T03:12:44;98815.88;;;21.82;60.28
13312;BME280;34033;48.672;9.376;2022-07-05T03:15:10;98818.03;;;21.65;61.17
13312;BME280;34033;48.672;9.376;2022-07-05T03:17:35;98814.19;;;21.59;61.65
13312;BME280;34033;48.672;9.376;2022-07-05T03:20:00;98824.50;;;21.40;62.37
13312;BME280;34033;48.672;9.376;2022-07-05T03:22:26;98813.59;;;21.26;63.05
13312;BME280;34033;48.672;9.376;2022-07-05T03:24:51;98823.09;;;21.07;63.51
13312;BME280;34033;48.672;9.376;2022-07-05T03:27:16;98825.19;;;21.19;63.29
13312;BME280;34033;48.672;9.376;2022-07-05T03:29:42;98826.69;;;21.49;62.25
13312;BME280;34033;48.672;9.376;2022-07-05T03:32:07;98828.50;;;21.68;61.68
13312;BME280;34033;48.672;9.376;2022-07-05T03:34:33;98827.81;;;21.77;61.10
13312;BME280;34033;48.672;9.376;2022-07-05T03:36:58;98833.47;;;21.89;60.52
13312;BME280;34033;48.672;9.376;2022-07-05T03:39:24;98831.91;;;22.01;59.99
13312;BME280;34033;48.672;9.376;2022-07-05T03:41:49;98832.38;;;21.99;59.81
13312;BME280;34033;48.672;9.376;2022-07-05T03:44:14;98837.72;;;21.97;59.79
13312;BME280;34033;48.672;9.376;2022-07-05T03:46:39;98832.25;;;22.03;59.64
13312;BME280;34033;48.672;9.376;2022-07-05T03:49:05;98842.97;;;21.99;59.73
13312;BME280;34033;48.672;9.376;2022-07-05T03:51:30;98846.16;;;21.88;60.00
13312;BME280;34033;48.672;9.376;2022-07-05T03:53:56;98850.38;;;21.96;59.71
13312;BME280;34033;48.672;9.376;2022-07-05T03:56:21;98851.13;;;21.84;59.62
13312;BME280;34033;48.672;9.376;2022-07-05T03:58:49;98855.13;;;21.87;59.76
13312;BME280;34033;48.672;9.376;2022-07-05T04:01:14;98861.06;;;21.92;59.66
13312;BME280;34033;48.672;9.376;2022-07-05T04:03:40;98864.25;;;21.94;59.68
13312;BME280;34033;48.672;9.376;2022-07-05T04:06:06;98862.06;;;21.86;59.86
13312;BME280;34033;48.672;9.376;2022-07-05T04:08:31;98860.94;;;21.96;59.55
13312;BME280;34033;48.672;9.376;2022-07-05T04:10:56;98859.34;;;21.95;59.28
13312;BME280;34033;48.672;9.376;2022-07-05T04:13:22;98867.31;;;22.00;59.09
13312;BME280;34033;48.672;9.376;2022-07-05T04:18:13;98870.16;;;22.00;59.09
13312;BME280;34033;48.672;9.376;2022-07-05T04:20:38;98874.84;;;21.94;59.15
13312;BME280;34033;48.672;9.376;2022-07-05T04:23:03;98872.47;;;22.05;59.17
13312;BME280;34033;48.672;9.376;2022-07-05T04:25:29;98878.13;;;21.92;59.33
13312;BME280;34033;48.672;9.376;2022-07-05T04:27:56;98875.28;;;21.54;60.12
13312;BME280;34033;48.672;9.376;2022-07-05T04:30:23;98876.72;;;21.21;61.38
13312;BME280;34033;48.672;9.376;2022-07-05T04:32:48;98874.56;;;20.96;62.25
13312;BME280;34033;48.672;9.376;2022-07-05T04:35:14;98878.44;;;20.73;62.90
13312;BME280;34033;48.672;9.376;2022-07-05T04:37:40;98878.97;;;20.56;63.78
13312;BME280;34033;48.672;9.376;2022-07-05T04:40:08;98883.16;;;20.35;64.49
13312;BME280;34033;48.672;9.376;2022-07-05T04:42:34;98884.41;;;20.18;65.28
13312;BME280;34033;48.672;9.376;2022-07-05T04:45:00;98885.13;;;20.06;65.78
13312;BME280;34033;48.672;9.376;2022-07-05T04:47:25;98887.75;;;19.96;66.19
13312;BME280;34033;48.672;9.376;2022-07-05T04:49:52;98893.63;;;19.89;66.57
13312;BME280;34033;48.672;9.376;2022-07-05T04:52:18;98896.00;;;19.75;67.36
13312;BME280;34033;48.672;9.376;2022-07-05T04:54:43;98898.28;;;19.64;68.31
13312;BME280;34033;48.672;9.376;2022-07-05T04:57:08;98892.78;;;19.56;68.71
13312;BME280;34033;48.672;9.376;2022-07-05T04:59:34;98899.31;;;19.53;68.96
13312;BME280;34033;48.672;9.376;2022-07-05T05:01:59;98899.84;;;19.48;69.30
13312;BME280;34033;48.672;9.376;2022-07-05T05:04:25;98893.06;;;19.42;69.57
13312;BME280;34033;48.672;9.376;2022-07-05T05:06:50;98893.59;;;19.37;70.03
13312;BME280;34033;48.672;9.376;2022-07-05T05:09:15;98899.16;;;19.41;69.79
13312;BME280;34033;48.672;9.376;2022-07-05T05:11:41;98895.91;;;19.42;70.01
13312;BME280;34033;48.672;9.376;2022-07-05T05:14:06;98895.09;;;19.42;70.12
13312;BME280;34033;48.672;9.376;2022-07-05T05:16:31;98896.00;;;19.39;70.28
13312;BME280;34033;48.672;9.376;2022-07-05T05:18:57;98895.56;;;19.40;70.59
13312;BME280;34033;48.672;9.376;2022-07-05T05:21:22;98895.41;;;19.47;70.39
13312;BME280;34033;48.672;9.376;2022-07-05T05:23:48;98898.53;;;19.53;70.05
13312;BME280;34033;48.672;9.376;2022-07-05T05:26:13;98895.63;;;19.56;70.05
13312;BME280;34033;48.672;9.376;2022-07-05T05:28:38;98889.50;;;19.58;69.58
13312;BME280;34033;48.672;9.376;2022-07-05T05:31:04;98892.69;;;19.60;69.07
13312;BME280;34033;48.672;9.376;2022-07-05T05:33:30;98897.56;;;19.60;69.13
13312;BME280;34033;48.672;9.376;2022-07-05T05:35:55;98905.09;;;19.50;69.47
13312;BME280;34033;48.672;9.376;2022-07-05T05:38:20;98905.78;;;19.54;69.60
13312;BME280;34033;48.672;9.376;2022-07-05T05:40:46;98905.28;;;19.59;68.95
13312;BME280;34033;48.672;9.376;2022-07-05T05:43:11;98907.31;;;19.58;68.70
13312;BME280;34033;48.672;9.376;2022-07-05T05:45:37;98909.72;;;19.60;68.79
13312;BME280;34033;48.672;9.376;2022-07-05T05:48:02;98909.56;;;19.67;67.60
13312;BME280;34033;48.672;9.376;2022-07-05T05:50:36;98908.13;;;19.75;67.51
13312;BME280;34033;48.672;9.376;2022-07-05T05:53:02;98917.34;;;19.79;66.85
13312;BME280;34033;48.672;9.376;2022-07-05T05:55:29;98905.94;;;19.83;66.61
13312;BME280;34033;48.672;9.376;2022-07-05T05:57:55;98913.28;;;19.80;66.39
13312;BME280;34033;48.672;9.376;2022-07-05T06:00:23;98915.16;;;19.87;66.50
13312;BME280;34033;48.672;9.376;2022-07-05T06:02:50;98919.88;;;19.93;66.48
13312;BME280;34033;48.672;9.376;2022-07-05T06:05:16;98923.78;;;19.99;66.36
13312;BME280;34033;48.672;9.376;2022-07-05T06:07:50;98925.28;;;20.04;66.68
13312;BME280;34033;48.672;9.376;2022-07-05T06:10:26;98920.03;;;20.03;66.92
13312;BME280;34033;48.672;9.376;2022-07-05T06:12:53;98934.88;;;20.10;67.08
13312;BME280;34033;48.672;9.376;2022-07-05T06:15:20;98935.66;;;20.11;66.98
13312;BME280;34033;48.672;9.376;2022-07-05T06:17:47;98923.78;;;20.16;66.92
13312;BME280;34033;48.672;9.376;2022-07-05T06:20:17;98928.38;;;20.26;66.58
13312;BME280;34033;48.672;9.376;2022-07-05T06:22:44;98929.56;;;20.28;66.67
13312;BME280;34033;48.672;9.376;2022-07-05T06:25:10;98929.84;;;20.34;66.71
13312;BME280;34033;48.672;9.376;2022-07-05T06:27:42;98931.16;;;20.46;66.04
13312;BME280;34033;48.672;9.376;2022-07-05T06:30:09;98935.94;;;20.49;64.90
13312;BME280;34033;48.672;9.376;2022-07-05T06:32:34;98940.66;;;20.55;64.73
13312;BME280;34033;48.672;9.376;2022-07-05T06:35:00;98933.38;;;20.54;64.65
13312;BME280;34033;48.672;9.376;2022-07-05T06:37:25;98933.19;;;20.61;64.43
13312;BME280;34033;48.672;9.376;2022-07-05T06:39:50;98940.25;;;20.69;64.45
13312;BME280;34033;48.672;9.376;2022-07-05T06:42:16;98937.25;;;20.76;63.39
13312;BME280;34033;48.672;9.376;2022-07-05T06:44:42;98943.25;;;20.78;63.82
13312;BME280;34033;48.672;9.376;2022-07-05T06:47:09;98943.25;;;20.78;63.16
13312;BME280;34033;48.672;9.376;2022-07-05T06:49:34;98947.25;;;20.81;63.25
13312;BME280;34033;48.672;9.376;2022-07-05T06:51:59;98951.16;;;20.87;63.70
13312;BME280;34033;48.672;9.376;2022-07-05T06:54:25;98948.69;;;20.89;62.66
13312;BME280;34033;48.672;9.376;2022-07-05T06:56:50;98947.66;;;20.96;61.81
13312;BME280;34033;48.672;9.376;2022-07-05T06:59:15;98946.78;;;20.99;61.95
13312;BME280;34033;48.672;9.376;2022-07-05T07:01:41;98942.69;;;21.00;61.15
13312;BME280;34033;48.672;9.376;2022-07-05T07:04:06;98944.19;;;21.04;61.35
13312;BME280;34033;48.672;9.376;2022-07-05T07:06:32;98945.13;;;21.14;61.35
13312;BME280;34033;48.672;9.376;2022-07-05T07:08:57;98945.28;;;21.23;61.34
13312;BME280;34033;48.672;9.376;2022-07-05T07:11:41;98942.59;;;21.32;61.22
13312;BME280;34033;48.672;9.376;2022-07-05T07:14:06;98941.59;;;21.39;61.10
13312;BME280;34033;48.672;9.376;2022-07-05T07:16:32;98945.00;;;21.46;60.37
13312;BME280;34033;48.672;9.376;2022-07-05T07:18:58;98944.34;;;21.55;60.13
13312;BME280;34033;48.672;9.376;2022-07-05T07:21:23;98944.13;;;21.62;59.27
13312;BME280;34033;48.672;9.376;2022-07-05T07:23:48;98947.19;;;21.68;59.20
13312;BME280;34033;48.672;9.376;2022-07-05T07:26:14;98948.72;;;21.72;59.46
13312;BME280;34033;48.672;9.376;2022-07-05T07:28:39;98941.31;;;21.75;58.26
13312;BME280;34033;48.672;9.376;2022-07-05T07:31:06;98947.34;;;21.77;58.10
13312;BME280;34033;48.672;9.376;2022-07-05T07:33:31;98950.75;;;21.72;58.36
13312;BME280;34033;48.672;9.376;2022-07-05T07:35:58;98951.44;;;21.76;58.72
13312;BME280;34033;48.672;9.376;2022-07-05T07:38:23;98952.78;;;21.84;59.58
13312;BME280;34033;48.672;9.376;2022-07-05T07:40:50;98939.41;;;22.10;59.07
13312;BME280;34033;48.672;9.376;2022-07-05T07:43:15;98945.19;;;22.31;58.59
13312;BME280;34033;48.672;9.376;2022-07-05T07:45:40;98946.53;;;22.39;57.76
13312;BME280;34033;48.672;9.376;2022-07-05T07:48:06;98952.00;;;22.46;57.29
13312;BME280;34033;48.672;9.376;2022-07-05T07:50:31;98954.94;;;22.56;57.67
13312;BME280;34033;48.672;9.376;2022-07-05T07:52:57;98957.22;;;22.61;57.02
13312;BME280;34033;48.672;9.376;2022-07-05T07:55:22;98959.97;;;22.39;57.63
13312;BME280;34033;48.672;9.376;2022-07-05T07:57:47;98952.81;;;22.47;57.38
13312;BME280;34033;48.672;9.376;2022-07-05T08:00:13;98953.69;;;22.57;57.20
13312;BME280;34033;48.672;9.376;2022-07-05T08:02:38;98955.97;;;22.62;55.77
13312;BME280;34033;48.672;9.376;2022-07-05T08:05:04;98952.75;;;22.72;56.09
13312;BME280;34033;48.672;9.376;2022-07-05T08:07:30;98958.38;;;22.76;55.70
13312;BME280;34033;48.672;9.376;2022-07-05T08:09:55;98955.94;;;22.87;55.61
13312;BME280;34033;48.672;9.376;2022-07-05T08:12:21;98954.81;;;23.06;55.84
13312;BME280;34033;48.672;9.376;2022-07-05T08:14:46;98954.56;;;23.13;54.29
13312;BME280;34033;48.672;9.376;2022-07-05T08:17:12;98956.81;;;23.18;54.75
13312;BME280;34033;48.672;9.376;2022-07-05T08:19:38;98961.03;;;23.26;54.20
13312;BME280;34033;48.672;9.376;2022-07-05T08:22:22;98953.97;;;23.40;52.97
13312;BME280;34033;48.672;9.376;2022-07-05T08:24:49;98956.81;;;23.40;52.55
13312;BME280;34033;48.672;9.376;2022-07-05T08:27:14;98958.53;;;23.38;51.78
13312;BME280;34033;48.672;9.376;2022-07-05T08:29:40;98944.09;;;23.32;50.06
13312;BME280;34033;48.672;9.376;2022-07-05T08:32:07;98947.59;;;23.36;49.39
13312;BME280;34033;48.672;9.376;2022-07-05T08:34:33;98946.47;;;23.34;51.38
13312;BME280;34033;48.672;9.376;2022-07-05T08:36:59;98946.47;;;23.55;52.16
13312;BME280;34033;48.672;9.376;2022-07-05T08:39:24;98945.94;;;23.69;51.79
13312;BME280;34033;48.672;9.376;2022-07-05T08:41:50;98943.38;;;23.62;49.59
13312;BME280;34033;48.672;9.376;2022-07-05T08:44:20;98936.81;;;23.84;50.04
13312;BME280;34033;48.672;9.376;2022-07-05T08:46:47;98936.63;;;23.78;49.30
13312;BME280;34033;48.672;9.376;2022-07-05T08:49:14;98946.44;;;23.77;49.61
13312;BME280;34033;48.672;9.376;2022-07-05T08:51:41;98942.06;;;23.85;47.19
13312;BME280;34033;48.672;9.376;2022-07-05T08:54:11;98933.16;;;23.83;47.15
13312;BME280;34033;48.672;9.376;2022-07-05T08:56:37;98930.38;;;23.92;47.04
13312;BME280;34033;48.672;9.376;2022-07-05T08:59:03;98940.69;;;23.99;47.72
13312;BME280;34033;48.672;9.376;2022-07-05T09:01:29;98931.41;;;24.17;46.95
13312;BME280;34033;48.672;9.376;2022-07-05T09:04:03;98932.66;;;24.16;45.65
13312;BME280;34033;48.672;9.376;2022-07-05T09:06:31;98937.78;;;24.21;44.96
13312;BME280;34033;48.672;9.376;2022-07-05T09:08:58;98938.38;;;24.16;46.38
13312;BME280;34033;48.672;9.376;2022-07-05T09:11:30;98940.88;;;24.35;46.11
13312;BME280;34033;48.672;9.376;2022-07-05T09:13:59;98937.22;;;24.44;45.94
13312;BME280;34033;48.672;9.376;2022-07-05T09:16:24;98931.69;;;24.49;45.00
13312;BME280;34033;48.672;9.376;2022-07-05T09:18:54;98929.22;;;24.21;46.11
13312;BME280;34033;48.672;9.376;2022-07-05T09:21:25;98931.78;;;24.37;46.19
13312;BME280;34033;48.672;9.376;2022-07-05T09:23:57;98935.16;;;24.53;45.86
13312;BME280;34033;48.672;9.376;2022-07-05T09:26:37;98939.16;;;24.65;45.70
13312;BME280;34033;48.672;9.376;2022-07-05T09:29:15;98931.13;;;24.91;46.01
13312;BME280;34033;48.672;9.376;2022-07-05T09:31:42;98933.50;;;25.11;44.58
13312;BME280;34033;48.672;9.376;2022-07-05T09:34:13;98931.94;;;24.91;44.09
13312;BME280;34033;48.672;9.376;2022-07-05T09:37:03;98928.75;;;25.08;44.60
13312;BME280;34033;48.672;9.376;2022-07-05T09:42:16;98935.09;;;25.39;44.36
13312;BME280;34033;48.672;9.376;2022-07-05T09:47:17;98934.59;;;25.68;43.03
13312;BME280;34033;48.672;9.376;2022-07-05T09:49:44;98932.44;;;25.87;42.92
13312;BME280;34033;48.672;9.376;2022-07-05T09:52:25;98932.69;;;26.07;42.49
13312;BME280;34033;48.672;9.376;2022-07-05T09:55:10;98937.56;;;25.83;41.37
13312;BME280;34033;48.672;9.376;2022-07-05T09:57:40;98932.28;;;25.90;40.50
13312;BME280;34033;48.672;9.376;2022-07-05T10:00:13;98933.00;;;26.09;39.68
13312;BME280;34033;48.672;9.376;2022-07-05T10:07:51;98937.13;;;24.84;39.63
13312;BME280;34033;48.672;9.376;2022-07-05T10:10:19;98932.72;;;25.10;38.71
13312;BME280;34033;48.672;9.376;2022-07-05T10:12:50;98934.78;;;25.28;37.11
13312;BME280;34033;48.672;9.376;2022-07-05T10:15:19;98928.38;;;25.51;37.27
13312;BME280;34033;48.672;9.376;2022-07-05T10:18:07;98933.31;;;25.60;37.19
13312;BME280;34033;48.672;9.376;2022-07-05T10:23:14;98927.91;;;26.46;36.76
13312;BME280;34033;48.672;9.376;2022-07-05T10:25:45;98925.09;;;26.61;36.74
13312;BME280;34033;48.672;9.376;2022-07-05T10:28:14;98920.03;;;26.55;36.47
13312;BME280;34033;48.672;9.376;2022-07-05T10:30:40;98922.06;;;26.88;36.19
13312;BME280;34033;48.672;9.376;2022-07-05T10:33:07;98926.25;;;26.78;35.81
13312;BME280;34033;48.672;9.376;2022-07-05T10:35:32;98920.88;;;26.47;35.51
13312;BME280;34033;48.672;9.376;2022-07-05T10:37:59;98915.22;;;26.38;35.47
13312;BME280;34033;48.672;9.376;2022-07-05T10:40:26;98921.78;;;26.20;35.24
13312;BME280;34033;48.672;9.376;2022-07-05T10:42:56;98929.03;;;26.06;36.01
13312;BME280;34033;48.672;9.376;2022-07-05T10:48:23;98914.47;;;26.28;35.71
13312;BME280;34033;48.672;9.376;2022-07-05T10:53:24;98917.81;;;26.74;34.68
13312;BME280;34033;48.672;9.376;2022-07-05T10:58:27;98908.03;;;26.90;33.98
13312;BME280;34033;48.672;9.376;2022-07-05T11:06:07;98912.66;;;26.87;34.32
13312;BME280;34033;48.672;9.376;2022-07-05T11:19:59;98922.81;;;27.51;32.52
13312;BME280;34033;48.672;9.376;2022-07-05T11:22:25;98913.19;;;27.68;32.99
13312;BME280;34033;48.672;9.376;2022-07-05T11:24:51;98924.38;;;27.96;32.50
13312;BME280;34033;48.672;9.376;2022-07-05T11:27:16;98919.31;;;27.91;32.10
13312;BME280;34033;48.672;9.376;2022-07-05T11:29:48;98918.13;;;27.97;31.46
13312;BME280;34033;48.672;9.376;2022-07-05T11:34:56;98909.94;;;27.75;31.01
13312;BME280;34033;48.672;9.376;2022-07-05T11:37:56;98912.00;;;27.46;31.01
13312;BME280;34033;48.672;9.376;2022-07-05T11:42:48;98911.59;;;27.23;31.24
13312;BME280;34033;48.672;9.376;2022-07-05T11:45:14;98911.84;;;27.25;32.30
13312;BME280;34033;48.672;9.376;2022-07-05T11:47:40;98903.66;;;27.48;31.90
13312;BME280;34033;48.672;9.376;2022-07-05T11:50:06;98901.34;;;27.61;30.95
13312;BME280;34033;48.672;9.376;2022-07-05T11:52:33;98896.59;;;28.07;30.38
13312;BME280;34033;48.672;9.376;2022-07-05T11:55:00;98884.75;;;28.35;29.78
13312;BME280;34033;48.672;9.376;2022-07-05T11:57:26;98889.97;;;28.71;30.04
13312;BME280;34033;48.672;9.376;2022-07-05T11:59:52;98888.03;;;29.03;29.46
13312;BME280;34033;48.672;9.376;2022-07-05T12:02:18;98884.66;;;29.05;30.47
13312;BME280;34033;48.672;9.376;2022-07-05T12:04:54;98886.94;;;29.21;28.16
13312;BME280;34033;48.672;9.376;2022-07-05T12:07:31;98882.50;;;29.46;28.14
13312;BME280;34033;48.672;9.376;2022-07-05T12:09:57;98880.28;;;29.61;28.95
13312;BME280;34033;48.672;9.376;2022-07-05T12:12:42;98881.78;;;29.82;28.09
13312;BME280;34033;48.672;9.376;2022-07-05T12:15:12;98876.84;;;29.57;29.45
13312;BME280;34033;48.672;9.376;2022-07-05T12:17:39;98876.78;;;29.25;28.16
13312;BME280;34033;48.672;9.376;2022-07-05T12:20:09;98871.53;;;28.78;28.71
13312;BME280;34033;48.672;9.376;2022-07-05T12:22:46;98867.34;;;28.79;30.47
13312;BME280;34033;48.672;9.376;2022-07-05T12:25:16;98874.47;;;28.83;29.47
13312;BME280;34033;48.672;9.376;2022-07-05T12:27:43;98872.28;;;28.38;29.47
13312;BME280;34033;48.672;9.376;2022-07-05T12:30:10;98871.97;;;28.36;29.63
13312;BME280;34033;48.672;9.376;2022-07-05T12:38:03;98874.66;;;28.80;28.90
13312;BME280;34033;48.672;9.376;2022-07-05T12:40:30;98869.97;;;29.02;28.43
13312;BME280;34033;48.672;9.376;2022-07-05T12:43:21;98872.22;;;29.39;27.96
13312;BME280;34033;48.672;9.376;2022-07-05T12:48:38;98865.31;;;29.57;26.97
13312;BME280;34033;48.672;9.376;2022-07-05T12:51:06;98863.81;;;29.35;28.07
13312;BME280;34033;48.672;9.376;2022-07-05T12:53:32;98864.47;;;29.25;28.76
13312;BME280;34033;48.672;9.376;2022-07-05T12:56:16;98867.16;;;29.54;28.15
13312;BME280;34033;48.672;9.376;2022-07-05T12:59:04;98859.69;;;29.73;27.99
13312;BME280;34033;48.672;9.376;2022-07-05T13:01:37;98864.25;;;29.54;28.35
13312;BME280;34033;48.672;9.376;2022-07-05T13:04:09;98855.47;;;30.00;27.89
13312;BME280;34033;48.672;9.376;2022-07-05T13:06:47;98855.66;;;29.34;28.23
13312;BME280;34033;48.672;9.376;2022-07-05T13:09:15;98858.41;;;29.43;28.14
13312;BME280;34033;48.672;9.376;2022-07-05T13:11:41;98853.19;;;29.78;27.10
13312;BME280;34033;48.672;9.376;2022-07-05T13:14:07;98856.97;;;30.27;27.43
13312;BME280;34033;48.672;9.376;2022-07-05T13:16:32;98861.72;;;30.78;26.40
13312;BME280;34033;48.672;9.376;2022-07-05T13:19:11;98860.09;;;30.72;27.23
13312;BME280;34033;48.672;9.376;2022-07-05T13:21:37;98858.09;;;30.94;27.16
13312;BME280;34033;48.672;9.376;2022-07-05T13:24:03;98856.94;;;31.40;27.38
13312;BME280;34033;48.672;9.376;2022-07-05T13:26:29;98866.88;;;30.15;27.54
13312;BME280;34033;48.672;9.376;2022-07-05T13:28:54;98860.94;;;29.93;27.13
13312;BME280;34033;48.672;9.376;2022-07-05T13:31:19;98858.16;;;29.78;27.68
13312;BME280;34033;48.672;9.376;2022-07-05T13:33:45;98862.19;;;29.09;28.78
13312;BME280;34033;48.672;9.376;2022-07-05T13:36:11;98859.19;;;29.23;29.83
13312;BME280;34033;48.672;9.376;2022-07-05T13:38:36;98861.28;;;29.23;28.83
13312;BME280;34033;48.672;9.376;2022-07-05T13:41:01;98863.38;;;29.22;28.97
13312;BME280;34033;48.672;9.376;2022-07-05T13:43:27;98858.09;;;29.41;29.76
13312;BME280;34033;48.672;9.376;2022-07-05T13:45:52;98862.56;;;29.99;28.64
13312;BME280;34033;48.672;9.376;2022-07-05T13:48:17;98857.88;;;30.98;29.58
13312;BME280;34033;48.672;9.376;2022-07-05T13:50:43;98855.13;;;31.93;31.12
13312;BME280;34033;48.672;9.376;2022-07-05T13:53:08;98844.88;;;33.46;28.35